sensor_id;sensor_type;location;lat;lon;timestamp;pressure;altitude;pressure_sealevel;temperature;humidity
78488;BME280;67885;49.758;9.582;2023-09-08T00:00:46;99491.47;;;22.64;47.94
78488;BME280;67885;49.758;9.582;2023-09-08T00:03:13;99478.50;;;22.53;47.53
78488;BME280;67885;49.758;9.582;2023-09-08T00:05:39;99499.13;;;22.61;47.97
78488;BME280;67885;49.758;9.582;2023-09-08T00:08:06;99501.38;;;22.57;48.39
78488;BME280;67885;49.758;9.582;2023-09-08T00:10:34;99508.19;;;22.53;47.48
78488;BME280;67885;49.758;9.582;2023-09-08T00:13:01;99496.97;;;22.49;48.04
78488;BME280;67885;49.758;9.582;2023-09-08T00:15:27;99483.97;;;22.38;47.95
78488;BME280;67885;49.758;9.582;2023-09-08T00:17:54;99505.63;;;22.45;47.34
78488;BME280;67885;49.758;9.582;2023-09-08T00:20:22;99488.03;;;22.34;48.09
78488;BME280;67885;49.758;9.582;2023-09-08T00:22:49;99504.34;;;22.40;47.89
78488;BME280;67885;49.758;9.582;2023-09-08T00:25:15;99502.03;;;22.37;48.05
78488;BME280;67885;49.758;9.582;2023-09-08T00:27:43;99499.88;;;22.33;48.09
78488;BME280;67885;49.758;9.582;2023-09-08T00:30:11;99501.09;;;22.30;48.59
78488;BME280;67885;49.758;9.582;2023-09-08T00:32:38;99507.50;;;22.29;47.67
78488;BME280;67885;49.758;9.582;2023-09-08T00:35:06;99502.50;;;22.26;47.76
78488;BME280;67885;49.758;9.582;2023-09-08T00:37:32;99506.44;;;22.23;47.77
78488;BME280;67885;49.758;9.582;2023-09-08T00:39:59;99494.53;;;22.18;48.23
78488;BME280;67885;49.758;9.582;2023-09-08T00:42:26;99482.38;;;22.07;48.08
78488;BME280;67885;49.758;9.582;2023-09-08T00:44:53;99498.81;;;22.12;47.98
78488;BME280;67885;49.758;9.582;2023-09-08T00:47:20;99508.31;;;22.08;48.00
78488;BME280;67885;49.758;9.582;2023-09-08T00:49:47;99503.13;;;22.06;48.51
78488;BME280;67885;49.758;9.582;2023-09-08T00:52:14;99482.03;;;21.95;47.97
78488;BME280;67885;49.758;9.582;2023-09-08T00:54:41;99499.59;;;22.06;48.11
78488;BME280;67885;49.758;9.582;2023-09-08T00:57:09;99505.81;;;22.06;48.29
78488;BME280;67885;49.758;9.582;2023-09-08T00:59:36;99501.81;;;22.02;48.92
78488;BME280;67885;49.758;9.582;2023-09-08T01:02:05;99506.13;;;21.97;48.39
78488;BME280;67885;49.758;9.582;2023-09-08T01:04:32;99503.81;;;21.94;48.31
78488;BME280;67885;49.758;9.582;2023-09-08T01:06:59;99514.13;;;21.90;49.12
78488;BME280;67885;49.758;9.582;2023-09-08T01:09:27;99507.25;;;21.87;49.67
78488;BME280;67885;49.758;9.582;2023-09-08T01:11:54;99510.16;;;21.86;48.97
78488;BME280;67885;49.758;9.582;2023-09-08T01:14:27;99509.47;;;21.84;48.67
78488;BME280;67885;49.758;9.582;2023-09-08T01:16:53;99512.94;;;21.78;48.91
78488;BME280;67885;49.758;9.582;2023-09-08T01:19:22;99508.97;;;21.73;49.56
78488;BME280;67885;49.758;9.582;2023-09-08T01:22:11;99510.16;;;21.71;49.06
78488;BME280;67885;49.758;9.582;2023-09-08T01:25:07;99488.03;;;21.61;48.73
78488;BME280;67885;49.758;9.582;2023-09-08T01:27:37;99471.69;;;21.32;49.23
78488;BME280;67885;49.758;9.582;2023-09-08T01:30:06;99504.03;;;21.62;48.91
78488;BME280;67885;49.758;9.582;2023-09-08T01:32:34;99501.28;;;21.55;49.28
78488;BME280;67885;49.758;9.582;2023-09-08T01:35:01;99498.25;;;21.50;48.56
78488;BME280;67885;49.758;9.582;2023-09-08T01:37:28;99497.59;;;21.48;49.79
78488;BME280;67885;49.758;9.582;2023-09-08T01:39:54;99500.69;;;21.45;49.65
78488;BME280;67885;49.758;9.582;2023-09-08T01:42:22;99504.97;;;21.39;49.26
78488;BME280;67885;49.758;9.582;2023-09-08T01:44:49;99501.97;;;21.34;49.41
78488;BME280;67885;49.758;9.582;2023-09-08T01:47:16;99498.63;;;21.32;49.43
78488;BME280;67885;49.758;9.582;2023-09-08T01:49:42;99491.78;;;21.30;49.26
78488;BME280;67885;49.758;9.582;2023-09-08T01:52:09;99493.78;;;21.28;49.60
78488;BME280;67885;49.758;9.582;2023-09-08T01:54:36;99496.88;;;21.25;50.05
78488;BME280;67885;49.758;9.582;2023-09-08T01:57:02;99494.06;;;21.18;49.70
78488;BME280;67885;49.758;9.582;2023-09-08T01:59:30;99475.50;;;21.08;49.45
78488;BME280;67885;49.758;9.582;2023-09-08T02:01:57;99489.50;;;21.18;49.37
78488;BME280;67885;49.758;9.582;2023-09-08T02:04:24;99485.34;;;21.16;49.98
78488;BME280;67885;49.758;9.582;2023-09-08T02:06:50;99492.78;;;21.14;49.85
78488;BME280;67885;49.758;9.582;2023-09-08T02:09:17;99473.06;;;20.98;50.05
78488;BME280;67885;49.758;9.582;2023-09-08T02:11:43;99497.22;;;21.06;49.81
78488;BME280;67885;49.758;9.582;2023-09-08T02:14:10;99492.88;;;21.05;50.35
78488;BME280;67885;49.758;9.582;2023-09-08T02:16:38;99488.69;;;21.03;49.52
78488;BME280;67885;49.758;9.582;2023-09-08T02:19:05;99492.00;;;21.05;50.49
78488;BME280;67885;49.758;9.582;2023-09-08T02:21:31;99490.25;;;20.97;49.47
78488;BME280;67885;49.758;9.582;2023-09-08T02:23:58;99496.56;;;21.04;49.98
78488;BME280;67885;49.758;9.582;2023-09-08T02:26:24;99495.44;;;20.99;50.26
78488;BME280;67885;49.758;9.582;2023-09-08T02:28:52;99490.78;;;20.93;50.50
78488;BME280;67885;49.758;9.582;2023-09-08T02:31:18;99491.16;;;20.89;49.74
78488;BME280;67885;49.758;9.582;2023-09-08T02:33:46;99494.88;;;20.88;50.29
78488;BME280;67885;49.758;9.582;2023-09-08T02:36:13;99492.16;;;20.88;50.37
78488;BME280;67885;49.758;9.582;2023-09-08T02:38:39;99493.03;;;20.89;50.16
78488;BME280;67885;49.758;9.582;2023-09-08T02:41:06;99491.72;;;20.85;50.21
78488;BME280;67885;49.758;9.582;2023-09-08T02:43:33;99493.44;;;20.78;50.32
78488;BME280;67885;49.758;9.582;2023-09-08T02:45:59;99496.22;;;20.69;50.93
78488;BME280;67885;49.758;9.582;2023-09-08T02:48:26;99494.34;;;20.70;50.77
78488;BME280;67885;49.758;9.582;2023-09-08T02:50:54;99488.97;;;20.70;49.76
78488;BME280;67885;49.758;9.582;2023-09-08T02:53:20;99488.28;;;20.68;50.28
78488;BME280;67885;49.758;9.582;2023-09-08T02:55:47;99486.47;;;20.68;50.09
78488;BME280;67885;49.758;9.582;2023-09-08T02:58:14;99486.16;;;20.63;49.77
78488;BME280;67885;49.758;9.582;2023-09-08T03:00:40;99496.13;;;20.54;50.58
78488;BME280;67885;49.758;9.582;2023-09-08T03:03:07;99494.81;;;20.50;50.01
78488;BME280;67885;49.758;9.582;2023-09-08T03:05:33;99503.09;;;20.49;50.44
78488;BME280;67885;49.758;9.582;2023-09-08T03:08:02;99486.00;;;20.42;50.40
78488;BME280;67885;49.758;9.582;2023-09-08T03:10:28;99492.56;;;20.39;50.76
78488;BME280;67885;49.758;9.582;2023-09-08T03:12:55;99494.59;;;20.37;50.83
78488;BME280;67885;49.758;9.582;2023-09-08T03:15:21;99494.59;;;20.37;51.55
78488;BME280;67885;49.758;9.582;2023-09-08T03:17:48;99491.53;;;20.40;51.33
78488;BME280;67885;49.758;9.582;2023-09-08T03:20:15;99486.16;;;20.40;50.58
78488;BME280;67885;49.758;9.582;2023-09-08T03:22:41;99493.56;;;20.38;51.28
78488;BME280;67885;49.758;9.582;2023-09-08T03:25:09;99477.25;;;20.16;50.26
78488;BME280;67885;49.758;9.582;2023-09-08T03:27:36;99491.72;;;20.38;50.20
78488;BME280;67885;49.758;9.582;2023-09-08T03:30:03;99486.22;;;20.32;50.60
78488;BME280;67885;49.758;9.582;2023-09-08T03:32:31;99489.75;;;20.32;50.55
78488;BME280;67885;49.758;9.582;2023-09-08T03:34:58;99496.16;;;20.31;50.91
78488;BME280;67885;49.758;9.582;2023-09-08T03:37:24;99496.50;;;20.28;50.42
78488;BME280;67885;49.758;9.582;2023-09-08T03:39:51;99499.38;;;20.27;51.05
78488;BME280;67885;49.758;9.582;2023-09-08T03:42:19;99500.22;;;20.27;51.11
78488;BME280;67885;49.758;9.582;2023-09-08T03:44:46;99497.03;;;20.24;51.67
78488;BME280;67885;49.758;9.582;2023-09-08T03:47:13;99498.78;;;20.16;50.74
78488;BME280;67885;49.758;9.582;2023-09-08T03:49:39;99473.72;;;19.93;51.28
78488;BME280;67885;49.758;9.582;2023-09-08T03:52:06;99491.28;;;20.03;50.91
78488;BME280;67885;49.758;9.582;2023-09-08T03:54:33;99491.00;;;19.98;50.56
78488;BME280;67885;49.758;9.582;2023-09-08T03:57:00;99497.72;;;19.94;51.60
78488;BME280;67885;49.758;9.582;2023-09-08T03:59:28;99497.41;;;19.89;51.30
78488;BME280;67885;49.758;9.582;2023-09-08T04:01:57;99451.03;;;19.55;51.18
78488;BME280;67885;49.758;9.582;2023-09-08T04:04:25;99499.59;;;19.85;50.72
78488;BME280;67885;49.758;9.582;2023-09-08T04:06:52;99498.25;;;19.90;50.44
78488;BME280;67885;49.758;9.582;2023-09-08T04:09:19;99495.09;;;19.86;50.42
78488;BME280;67885;49.758;9.582;2023-09-08T04:11:46;99493.72;;;19.90;50.88
78488;BME280;67885;49.758;9.582;2023-09-08T04:14:12;99503.09;;;19.94;50.46
78488;BME280;67885;49.758;9.582;2023-09-08T04:16:40;99496.69;;;19.95;50.71
78488;BME280;67885;49.758;9.582;2023-09-08T04:19:07;99489.34;;;19.89;51.39
78488;BME280;67885;49.758;9.582;2023-09-08T04:21:33;99491.72;;;19.84;51.66
78488;BME280;67885;49.758;9.582;2023-09-08T04:24:00;99493.53;;;19.92;52.21
78488;BME280;67885;49.758;9.582;2023-09-08T04:26:27;99487.75;;;20.03;52.20
78488;BME280;67885;49.758;9.582;2023-09-08T04:28:53;99489.38;;;20.12;51.71
78488;BME280;67885;49.758;9.582;2023-09-08T04:31:20;99494.06;;;20.18;50.92
78488;BME280;67885;49.758;9.582;2023-09-08T04:33:48;99493.34;;;20.25;50.68
78488;BME280;67885;49.758;9.582;2023-09-08T04:36:15;99492.44;;;20.32;50.32
78488;BME280;67885;49.758;9.582;2023-09-08T04:38:42;99501.47;;;20.39;50.97
78488;BME280;67885;49.758;9.582;2023-09-08T04:41:10;99500.09;;;20.44;49.69
78488;BME280;67885;49.758;9.582;2023-09-08T04:43:36;99500.47;;;20.41;50.34
78488;BME280;67885;49.758;9.582;2023-09-08T04:46:03;99495.78;;;20.34;49.71
78488;BME280;67885;49.758;9.582;2023-09-08T04:48:30;99499.72;;;20.24;50.66
78488;BME280;67885;49.758;9.582;2023-09-08T04:50:58;99487.38;;;20.06;50.74
78488;BME280;67885;49.758;9.582;2023-09-08T04:53:24;99458.97;;;19.80;50.25
78488;BME280;67885;49.758;9.582;2023-09-08T04:55:51;99500.06;;;19.97;50.50
78488;BME280;67885;49.758;9.582;2023-09-08T04:58:18;99506.31;;;19.90;50.78
78488;BME280;67885;49.758;9.582;2023-09-08T05:00:45;99507.34;;;19.80;50.61
78488;BME280;67885;49.758;9.582;2023-09-08T05:03:11;99507.88;;;19.76;51.19
78488;BME280;67885;49.758;9.582;2023-09-08T05:05:38;99515.94;;;19.76;50.78
78488;BME280;67885;49.758;9.582;2023-09-08T05:08:06;99489.13;;;19.59;51.01
78488;BME280;67885;49.758;9.582;2023-09-08T05:10:33;99521.13;;;19.77;50.78
78488;BME280;67885;49.758;9.582;2023-09-08T05:12:59;99516.28;;;19.73;51.98
78488;BME280;67885;49.758;9.582;2023-09-08T05:15:26;99526.72;;;19.67;51.95
78488;BME280;67885;49.758;9.582;2023-09-08T05:17:52;99526.38;;;19.62;51.96
78488;BME280;67885;49.758;9.582;2023-09-08T05:20:19;99526.38;;;19.62;52.25
78488;BME280;67885;49.758;9.582;2023-09-08T05:22:46;99525.88;;;19.59;52.16
78488;BME280;67885;49.758;9.582;2023-09-08T05:25:14;99475.97;;;19.25;51.94
78488;BME280;67885;49.758;9.582;2023-09-08T05:27:40;99532.97;;;19.51;52.09
78488;BME280;67885;49.758;9.582;2023-09-08T05:30:08;99529.97;;;19.46;51.23
78488;BME280;67885;49.758;9.582;2023-09-08T05:32:34;99531.13;;;19.44;51.15
78488;BME280;67885;49.758;9.582;2023-09-08T05:35:02;99535.03;;;19.41;51.33
78488;BME280;67885;49.758;9.582;2023-09-08T05:37:28;99534.19;;;19.41;51.44
78488;BME280;67885;49.758;9.582;2023-09-08T05:39:55;99535.34;;;19.38;51.82
78488;BME280;67885;49.758;9.582;2023-09-08T05:42:23;99543.59;;;19.36;52.25
78488;BME280;67885;49.758;9.582;2023-09-08T05:44:49;99540.25;;;19.34;52.56
78488;BME280;67885;49.758;9.582;2023-09-08T05:47:16;99516.78;;;19.20;52.76
78488;BME280;67885;49.758;9.582;2023-09-08T05:49:43;99544.75;;;19.42;52.63
78488;BME280;67885;49.758;9.582;2023-09-08T05:52:09;99548.44;;;19.49;52.99
78488;BME280;67885;49.758;9.582;2023-09-08T05:54:36;99540.84;;;19.53;53.07
78488;BME280;67885;49.758;9.582;2023-09-08T05:57:03;99529.50;;;19.43;53.38
78488;BME280;67885;49.758;9.582;2023-09-08T05:59:31;99543.53;;;19.53;53.64
78488;BME280;67885;49.758;9.582;2023-09-08T06:01:57;99538.84;;;19.55;54.12
78488;BME280;67885;49.758;9.582;2023-09-08T06:04:24;99543.03;;;19.58;53.41
78488;BME280;67885;49.758;9.582;2023-09-08T06:06:50;99543.50;;;19.61;52.79
78488;BME280;67885;49.758;9.582;2023-09-08T06:09:17;99539.66;;;19.64;53.12
78488;BME280;67885;49.758;9.582;2023-09-08T06:11:43;99543.19;;;19.64;53.48
78488;BME280;67885;49.758;9.582;2023-09-08T06:14:11;99537.63;;;19.66;53.63
78488;BME280;67885;49.758;9.582;2023-09-08T06:16:39;99533.78;;;19.68;53.70
78488;BME280;67885;49.758;9.582;2023-09-08T06:19:07;99531.91;;;19.69;53.80
78488;BME280;67885;49.758;9.582;2023-09-08T06:21:33;99540.78;;;19.69;53.71
78488;BME280;67885;49.758;9.582;2023-09-08T06:24:00;99540.66;;;19.71;53.68
78488;BME280;67885;49.758;9.582;2023-09-08T06:26:27;99548.81;;;19.78;54.21
78488;BME280;67885;49.758;9.582;2023-09-08T06:28:53;99545.81;;;19.89;54.04
78488;BME280;67885;49.758;9.582;2023-09-08T06:31:20;99546.72;;;20.04;53.90
78488;BME280;67885;49.758;9.582;2023-09-08T06:33:48;99543.94;;;20.21;53.85
78488;BME280;67885;49.758;9.582;2023-09-08T06:36:17;99549.06;;;20.39;53.61
78488;BME280;67885;49.758;9.582;2023-09-08T06:38:44;99546.75;;;20.59;53.11
78488;BME280;67885;49.758;9.582;2023-09-08T06:41:11;99547.28;;;20.78;52.92
78488;BME280;67885;49.758;9.582;2023-09-08T06:43:38;99481.44;;;20.42;52.60
78488;BME280;67885;49.758;9.582;2023-09-08T06:46:04;99556.56;;;21.13;52.72
78488;BME280;67885;49.758;9.582;2023-09-08T06:48:32;99544.59;;;21.31;51.74
78488;BME280;67885;49.758;9.582;2023-09-08T06:51:00;99545.28;;;21.48;51.45
78488;BME280;67885;49.758;9.582;2023-09-08T06:53:27;99556.72;;;21.65;52.04
78488;BME280;67885;49.758;9.582;2023-09-08T06:55:53;99554.69;;;21.82;50.77
78488;BME280;67885;49.758;9.582;2023-09-08T06:58:20;99553.84;;;21.96;51.36
78488;BME280;67885;49.758;9.582;2023-09-08T07:00:47;99560.03;;;22.12;50.64
78488;BME280;67885;49.758;9.582;2023-09-08T07:03:15;99556.63;;;22.24;49.96
78488;BME280;67885;49.758;9.582;2023-09-08T07:05:41;99557.75;;;22.30;49.67
78488;BME280;67885;49.758;9.582;2023-09-08T07:08:09;99561.84;;;22.41;49.61
78488;BME280;67885;49.758;9.582;2023-09-08T07:10:36;99555.69;;;22.47;49.77
78488;BME280;67885;49.758;9.582;2023-09-08T07:13:03;99556.75;;;22.53;49.98
78488;BME280;67885;49.758;9.582;2023-09-08T07:15:30;99564.09;;;22.59;50.53
78488;BME280;67885;49.758;9.582;2023-09-08T07:17:56;99556.28;;;22.64;50.84
78488;BME280;67885;49.758;9.582;2023-09-08T07:20:23;99557.03;;;22.80;50.74
78488;BME280;67885;49.758;9.582;2023-09-08T07:22:50;99540.38;;;22.76;49.24
78488;BME280;67885;49.758;9.582;2023-09-08T07:25:18;99554.97;;;23.03;50.65
78488;BME280;67885;49.758;9.582;2023-09-08T07:27:44;99558.81;;;23.16;49.50
78488;BME280;67885;49.758;9.582;2023-09-08T07:30:12;99558.03;;;23.22;49.38
78488;BME280;67885;49.758;9.582;2023-09-08T07:32:39;99544.75;;;23.27;49.14
78488;BME280;67885;49.758;9.582;2023-09-08T07:35:06;99547.50;;;23.34;48.65
78488;BME280;67885;49.758;9.582;2023-09-08T07:37:39;99544.25;;;23.45;48.76
78488;BME280;67885;49.758;9.582;2023-09-08T07:40:07;99551.16;;;23.54;48.78
78488;BME280;67885;49.758;9.582;2023-09-08T07:42:35;99543.50;;;23.58;48.50
78488;BME280;67885;49.758;9.582;2023-09-08T07:45:02;99544.38;;;23.65;49.03
78488;BME280;67885;49.758;9.582;2023-09-08T07:47:29;99545.94;;;23.88;49.16
78488;BME280;67885;49.758;9.582;2023-09-08T07:50:17;99545.63;;;24.11;48.07
78488;BME280;67885;49.758;9.582;2023-09-08T07:52:44;99546.09;;;24.35;47.72
78488;BME280;67885;49.758;9.582;2023-09-08T07:55:11;99543.66;;;24.60;47.59
78488;BME280;67885;49.758;9.582;2023-09-08T07:57:38;99543.94;;;24.79;45.85
78488;BME280;67885;49.758;9.582;2023-09-08T08:00:07;99544.78;;;24.92;45.72
78488;BME280;67885;49.758;9.582;2023-09-08T08:02:36;99538.31;;;25.00;46.79
78488;BME280;67885;49.758;9.582;2023-09-08T08:05:02;99534.97;;;25.12;46.30
78488;BME280;67885;49.758;9.582;2023-09-08T08:07:29;99536.41;;;25.28;46.99
78488;BME280;67885;49.758;9.582;2023-09-08T08:09:56;99531.81;;;25.41;45.63
78488;BME280;67885;49.758;9.582;2023-09-08T08:12:23;99522.44;;;25.44;44.86
78488;BME280;67885;49.758;9.582;2023-09-08T08:14:51;99375.59;;;24.68;44.72
78488;BME280;67885;49.758;9.582;2023-09-08T08:17:18;99524.84;;;25.72;45.12
78488;BME280;67885;49.758;9.582;2023-09-08T08:19:45;99528.53;;;25.91;44.79
78488;BME280;67885;49.758;9.582;2023-09-08T08:22:12;99531.44;;;26.03;44.52
78488;BME280;67885;49.758;9.582;2023-09-08T08:24:39;99524.31;;;26.09;44.45
78488;BME280;67885;49.758;9.582;2023-09-08T08:27:05;99524.00;;;26.24;44.36
78488;BME280;67885;49.758;9.582;2023-09-08T08:29:32;99523.03;;;26.43;44.02
78488;BME280;67885;49.758;9.582;2023-09-08T08:32:00;99525.22;;;26.60;44.54
78488;BME280;67885;49.758;9.582;2023-09-08T08:34:26;99519.97;;;26.65;43.33
78488;BME280;67885;49.758;9.582;2023-09-08T08:36:53;99506.59;;;26.70;43.11
78488;BME280;67885;49.758;9.582;2023-09-08T08:39:20;99521.75;;;26.85;42.68
78488;BME280;67885;49.758;9.582;2023-09-08T08:41:46;99519.16;;;26.90;43.18
78488;BME280;67885;49.758;9.582;2023-09-08T08:44:15;99511.59;;;26.99;43.03
78488;BME280;67885;49.758;9.582;2023-09-08T08:46:45;99476.94;;;26.94;42.73
78488;BME280;67885;49.758;9.582;2023-09-08T08:49:15;99526.44;;;27.21;41.72
78488;BME280;67885;49.758;9.582;2023-09-08T08:51:44;99513.19;;;27.25;41.97
78488;BME280;67885;49.758;9.582;2023-09-08T08:54:11;99502.84;;;27.40;41.54
78488;BME280;67885;49.758;9.582;2023-09-08T08:56:39;99495.34;;;27.54;42.38
78488;BME280;67885;49.758;9.582;2023-09-08T08:59:07;99501.63;;;27.73;42.11
78488;BME280;67885;49.758;9.582;2023-09-08T09:01:36;99493.75;;;27.84;42.46
78488;BME280;67885;49.758;9.582;2023-09-08T09:04:05;99493.34;;;27.99;40.98
78488;BME280;67885;49.758;9.582;2023-09-08T09:06:34;99491.06;;;28.14;39.17
78488;BME280;67885;49.758;9.582;2023-09-08T09:09:01;99484.47;;;28.34;40.05
78488;BME280;67885;49.758;9.582;2023-09-08T09:11:29;99488.06;;;28.58;41.57
78488;BME280;67885;49.758;9.582;2023-09-08T09:13:56;99488.03;;;28.76;38.63
78488;BME280;67885;49.758;9.582;2023-09-08T09:16:23;99478.44;;;28.98;38.49
78488;BME280;67885;49.758;9.582;2023-09-08T09:18:57;99477.84;;;29.19;38.27
78488;BME280;67885;49.758;9.582;2023-09-08T09:21:24;99477.47;;;29.39;38.22
78488;BME280;67885;49.758;9.582;2023-09-08T09:24:13;99483.50;;;29.53;37.12
78488;BME280;67885;49.758;9.582;2023-09-08T09:26:40;99476.13;;;29.54;36.19
78488;BME280;67885;49.758;9.582;2023-09-08T09:29:12;99465.13;;;29.37;34.96
78488;BME280;67885;49.758;9.582;2023-09-08T09:31:50;99487.66;;;29.56;34.87
78488;BME280;67885;49.758;9.582;2023-09-08T09:34:18;99448.63;;;29.43;34.38
78488;BME280;67885;49.758;9.582;2023-09-08T09:36:47;99480.34;;;29.73;32.42
78488;BME280;67885;49.758;9.582;2023-09-08T09:39:18;99483.47;;;29.65;32.90
78488;BME280;67885;49.758;9.582;2023-09-08T09:41:45;99474.09;;;29.61;32.33
78488;BME280;67885;49.758;9.582;2023-09-08T09:44:13;99483.94;;;29.62;32.79
78488;BME280;67885;49.758;9.582;2023-09-08T09:46:43;99477.56;;;29.56;33.32
78488;BME280;67885;49.758;9.582;2023-09-08T09:49:11;99473.06;;;29.50;32.97
78488;BME280;67885;49.758;9.582;2023-09-08T09:51:40;99483.03;;;29.44;33.10
78488;BME280;67885;49.758;9.582;2023-09-08T09:54:07;99477.03;;;29.31;32.46
78488;BME280;67885;49.758;9.582;2023-09-08T09:56:37;99480.44;;;29.14;33.04
78488;BME280;67885;49.758;9.582;2023-09-08T09:59:04;99464.94;;;28.91;33.61
78488;BME280;67885;49.758;9.582;2023-09-08T10:01:33;99475.13;;;29.07;34.31
78488;BME280;67885;49.758;9.582;2023-09-08T10:04:02;99477.38;;;29.10;33.03
78488;BME280;67885;49.758;9.582;2023-09-08T10:06:31;99470.97;;;29.05;34.40
78488;BME280;67885;49.758;9.582;2023-09-08T10:08:59;99468.94;;;29.12;34.29
78488;BME280;67885;49.758;9.582;2023-09-08T10:11:28;99467.50;;;29.21;33.91
78488;BME280;67885;49.758;9.582;2023-09-08T10:13:59;99464.31;;;29.36;33.85
78488;BME280;67885;49.758;9.582;2023-09-08T10:16:27;99460.72;;;29.48;33.23
78488;BME280;67885;49.758;9.582;2023-09-08T10:18:58;99464.06;;;29.50;33.03
78488;BME280;67885;49.758;9.582;2023-09-08T10:21:26;99443.28;;;29.49;33.64
78488;BME280;67885;49.758;9.582;2023-09-08T10:24:07;99456.63;;;29.74;32.58
78488;BME280;67885;49.758;9.582;2023-09-08T10:26:40;99460.38;;;29.85;33.99
78488;BME280;67885;49.758;9.582;2023-09-08T10:29:12;99455.72;;;29.97;31.82
78488;BME280;67885;49.758;9.582;2023-09-08T10:31:39;99444.75;;;30.09;32.41
78488;BME280;67885;49.758;9.582;2023-09-08T10:34:07;99441.88;;;30.16;31.22
78488;BME280;67885;49.758;9.582;2023-09-08T10:36:34;99438.97;;;30.22;32.52
78488;BME280;67885;49.758;9.582;2023-09-08T10:39:28;99435.59;;;30.32;30.64
78488;BME280;67885;49.758;9.582;2023-09-08T10:42:21;99439.22;;;30.38;31.25
78488;BME280;67885;49.758;9.582;2023-09-08T10:44:59;99443.00;;;30.49;31.73
78488;BME280;67885;49.758;9.582;2023-09-08T10:47:39;99435.94;;;30.53;30.84
78488;BME280;67885;49.758;9.582;2023-09-08T10:50:16;99420.38;;;30.53;30.88
78488;BME280;67885;49.758;9.582;2023-09-08T10:52:42;99444.88;;;30.65;31.29
78488;BME280;67885;49.758;9.582;2023-09-08T10:55:11;99428.81;;;30.69;30.86
78488;BME280;67885;49.758;9.582;2023-09-08T10:57:44;99429.97;;;30.73;29.84
78488;BME280;67885;49.758;9.582;2023-09-08T11:00:17;99419.22;;;30.66;30.32
78488;BME280;67885;49.758;9.582;2023-09-08T11:02:49;99425.25;;;30.68;30.39
78488;BME280;67885;49.758;9.582;2023-09-08T11:05:16;99416.13;;;30.63;30.11
78488;BME280;67885;49.758;9.582;2023-09-08T11:07:45;99412.91;;;30.66;31.43
78488;BME280;67885;49.758;9.582;2023-09-08T11:10:14;99411.66;;;30.73;30.93
78488;BME280;67885;49.758;9.582;2023-09-08T11:12:41;99413.06;;;30.76;30.99
78488;BME280;67885;49.758;9.582;2023-09-08T11:15:08;99376.63;;;30.53;30.51
78488;BME280;67885;49.758;9.582;2023-09-08T11:17:38;99415.53;;;30.77;31.05
78488;BME280;67885;49.758;9.582;2023-09-08T11:20:08;99405.63;;;30.71;30.97
78488;BME280;67885;49.758;9.582;2023-09-08T11:22:37;99411.31;;;30.87;30.68
78488;BME280;67885;49.758;9.582;2023-09-08T11:25:06;99422.13;;;30.99;30.68
78488;BME280;67885;49.758;9.582;2023-09-08T11:27:34;99421.88;;;31.00;29.89
78488;BME280;67885;49.758;9.582;2023-09-08T11:30:01;99418.88;;;31.02;30.22
78488;BME280;67885;49.758;9.582;2023-09-08T11:32:32;99401.59;;;30.96;29.64
78488;BME280;67885;49.758;9.582;2023-09-08T11:35:03;99412.50;;;31.13;30.00
78488;BME280;67885;49.758;9.582;2023-09-08T11:37:35;99401.81;;;31.11;30.11
78488;BME280;67885;49.758;9.582;2023-09-08T11:40:03;99405.56;;;31.27;29.88
78488;BME280;67885;49.758;9.582;2023-09-08T11:42:35;99404.94;;;31.42;29.29
78488;BME280;67885;49.758;9.582;2023-09-08T11:45:02;99397.03;;;31.46;29.54
78488;BME280;67885;49.758;9.582;2023-09-08T11:47:29;99406.41;;;31.50;29.00
78488;BME280;67885;49.758;9.582;2023-09-08T11:49:57;99396.84;;;31.53;29.27
78488;BME280;67885;49.758;9.582;2023-09-08T11:52:25;99396.59;;;31.54;29.07
78488;BME280;67885;49.758;9.582;2023-09-08T11:54:52;99390.94;;;31.61;28.41
78488;BME280;67885;49.758;9.582;2023-09-08T11:57:19;99373.63;;;31.55;30.10
78488;BME280;67885;49.758;9.582;2023-09-08T11:59:47;99385.94;;;31.80;29.34
78488;BME280;67885;49.758;9.582;2023-09-08T12:02:14;99382.72;;;31.88;28.67
78488;BME280;67885;49.758;9.582;2023-09-08T12:04:42;99394.28;;;31.95;28.18
78488;BME280;67885;49.758;9.582;2023-09-08T12:07:12;99388.53;;;31.97;27.38
78488;BME280;67885;49.758;9.582;2023-09-08T12:09:41;99427.22;;;32.01;28.00
78488;BME280;67885;49.758;9.582;2023-09-08T12:12:11;99370.22;;;31.98;28.84
78488;BME280;67885;49.758;9.582;2023-09-08T12:14:40;99386.69;;;32.03;28.88
78488;BME280;67885;49.758;9.582;2023-09-08T12:17:08;99387.31;;;32.10;29.04
78488;BME280;67885;49.758;9.582;2023-09-08T12:19:35;99376.63;;;32.14;27.34
78488;BME280;67885;49.758;9.582;2023-09-08T12:22:04;99375.56;;;32.15;28.30
78488;BME280;67885;49.758;9.582;2023-09-08T12:24:56;99347.81;;;32.06;27.36
78488;BME280;67885;49.758;9.582;2023-09-08T12:27:24;99349.72;;;32.05;27.86
78488;BME280;67885;49.758;9.582;2023-09-08T12:29:52;99364.75;;;32.30;27.91
78488;BME280;67885;49.758;9.582;2023-09-08T12:32:19;99362.53;;;32.27;27.43
78488;BME280;67885;49.758;9.582;2023-09-08T12:34:46;99356.50;;;32.25;27.54
78488;BME280;67885;49.758;9.582;2023-09-08T12:37:13;99371.00;;;32.25;27.65
78488;BME280;67885;49.758;9.582;2023-09-08T12:39:40;99361.44;;;32.28;28.35
78488;BME280;67885;49.758;9.582;2023-09-08T12:42:08;99362.88;;;32.36;27.93
78488;BME280;67885;49.758;9.582;2023-09-08T12:44:34;99357.16;;;32.42;27.50
78488;BME280;67885;49.758;9.582;2023-09-08T12:47:01;99356.91;;;32.44;27.31
78488;BME280;67885;49.758;9.582;2023-09-08T12:49:27;99358.56;;;32.45;27.25
78488;BME280;67885;49.758;9.582;2023-09-08T12:51:54;99356.38;;;32.47;26.18
78488;BME280;67885;49.758;9.582;2023-09-08T12:54:21;99356.31;;;32.42;27.48
78488;BME280;67885;49.758;9.582;2023-09-08T12:56:47;99355.81;;;32.45;27.44
78488;BME280;67885;49.758;9.582;2023-09-08T12:59:17;99353.91;;;32.45;27.67
78488;BME280;67885;49.758;9.582;2023-09-08T13:01:43;99365.66;;;32.46;26.87
78488;BME280;67885;49.758;9.582;2023-09-08T13:04:10;99348.44;;;32.51;27.37